Vanceboro, Maine
Current Conditions -  °F | °C
As of 1:53 PM on Friday 21 Nov 2014 (Local Time) from KHUL Reporting Station
Overcast Overcast  
Wind Chill: 18°   Ceiling: 4500
Heat Index: 26°   Visibility: 10mi
Dew Point:   Wind: 8mph
Humidity: 49%   Direction: 300°WNW
Pressure: 29.88"   Gusts: 18mph
Location:  45.56°N, 67.43°W
Report Text: KHUL 211853Z AUTO 30007G16KT 10SM OVC045 M03/M13 A2988 RMK AO2 SNB1756E08 SLP128 P0000 T10331128
Loading
Personal Weather Stations






























Interactive Weather Map New forecast layout! Learn more

10-Day Weather Forecast

Advertisements
Track Severe Weather on mobile